sensor_id;sensor_type;location;lat;lon;timestamp;pressure;altitude;pressure_sealevel;temperature;humidity
63090;BME280;49174;43.198;27.824;2023-01-25T05:56:17;103195.19;;;0.74;85.94
63090;BME280;49174;43.198;27.824;2023-01-25T06:14:53;103182.47;;;0.80;85.82
63090;BME280;49174;43.198;27.824;2023-01-25T06:17:19;103178.78;;;0.83;85.87
63090;BME280;49174;43.198;27.824;2023-01-25T06:19:44;103179.53;;;0.86;85.62
63090;BME280;49174;43.198;27.824;2023-01-25T06:22:10;103186.69;;;0.84;86.59
63090;BME280;49174;43.198;27.824;2023-01-25T06:24:35;103190.28;;;0.83;86.42
63090;BME280;49174;43.198;27.824;2023-01-25T06:27:01;103181.44;;;0.83;86.18
63090;BME280;49174;43.198;27.824;2023-01-25T06:29:27;103183.09;;;0.85;86.70
63090;BME280;49174;43.198;27.824;2023-01-25T06:31:52;103178.72;;;0.84;86.88
63090;BME280;49174;43.198;27.824;2023-01-25T06:34:19;103171.41;;;0.89;86.56
63090;BME280;49174;43.198;27.824;2023-01-25T06:36:45;103180.09;;;0.93;86.95
63090;BME280;49174;43.198;27.824;2023-01-25T06:39:13;103179.13;;;0.94;86.96
63090;BME280;49174;43.198;27.824;2023-01-25T06:41:38;103179.22;;;0.93;87.96
63090;BME280;49174;43.198;27.824;2023-01-25T06:44:04;103170.16;;;0.97;87.38
63090;BME280;49174;43.198;27.824;2023-01-25T06:46:31;103170.16;;;0.97;87.89
63090;BME280;49174;43.198;27.824;2023-01-25T06:48:56;103172.59;;;1.01;87.80
63090;BME280;49174;43.198;27.824;2023-01-25T06:51:22;103179.19;;;1.11;87.71
63090;BME280;49174;43.198;27.824;2023-01-25T06:53:47;103174.72;;;1.12;87.62
63090;BME280;49174;43.198;27.824;2023-01-25T06:56:19;103179.75;;;1.18;87.33
63090;BME280;49174;43.198;27.824;2023-01-25T06:58:46;103182.66;;;1.31;86.97
63090;BME280;49174;43.198;27.824;2023-01-25T07:01:20;103182.72;;;1.29;86.23
63090;BME280;49174;43.198;27.824;2023-01-25T07:03:52;103182.66;;;1.31;86.88
63090;BME280;49174;43.198;27.824;2023-01-25T07:06:18;103183.38;;;1.34;87.74
63090;BME280;49174;43.198;27.824;2023-01-25T07:08:44;103165.28;;;1.41;87.21
63090;BME280;49174;43.198;27.824;2023-01-25T07:11:11;103177.50;;;1.45;87.24
63090;BME280;49174;43.198;27.824;2023-01-25T07:13:41;103167.72;;;1.46;87.55
63090;BME280;49174;43.198;27.824;2023-01-25T07:16:11;103165.91;;;1.46;87.80
63090;BME280;49174;43.198;27.824;2023-01-25T07:18:37;103165.84;;;1.48;87.11
63090;BME280;49174;43.198;27.824;2023-01-25T07:21:04;103173.09;;;1.44;87.37
63090;BME280;49174;43.198;27.824;2023-01-25T07:23:31;103176.56;;;1.46;87.65
63090;BME280;49174;43.198;27.824;2023-01-25T07:25:57;103165.44;;;1.55;86.81
63090;BME280;49174;43.198;27.824;2023-01-25T07:28:22;103168.72;;;1.61;87.52
63090;BME280;49174;43.198;27.824;2023-01-25T07:30:48;103169.59;;;1.61;86.72
63090;BME280;49174;43.198;27.824;2023-01-25T07:33:14;103168.81;;;1.59;86.91
63090;BME280;49174;43.198;27.824;2023-01-25T07:35:39;103179.53;;;1.58;86.85
63090;BME280;49174;43.198;27.824;2023-01-25T07:38:05;103182.81;;;1.63;87.52
63090;BME280;49174;43.198;27.824;2023-01-25T07:40:31;103182.28;;;1.73;86.15
63090;BME280;49174;43.198;27.824;2023-01-25T07:42:56;103186.59;;;1.76;85.38
63090;BME280;49174;43.198;27.824;2023-01-25T07:45:23;103193.25;;;1.67;85.67
63090;BME280;49174;43.198;27.824;2023-01-25T07:47:58;103191.75;;;1.62;86.42
63090;BME280;49174;43.198;27.824;2023-01-25T07:50:27;103190.09;;;1.76;86.63
63090;BME280;49174;43.198;27.824;2023-01-25T07:52:53;103184.78;;;1.76;85.96
63090;BME280;49174;43.198;27.824;2023-01-25T07:55:20;103185.25;;;1.85;85.69
63090;BME280;49174;43.198;27.824;2023-01-25T07:57:46;103179.75;;;1.88;85.33
63090;BME280;49174;43.198;27.824;2023-01-25T08:00:12;103178.91;;;1.87;85.44
63090;BME280;49174;43.198;27.824;2023-01-25T08:02:38;103188.53;;;1.90;84.44
63090;BME280;49174;43.198;27.824;2023-01-25T08:05:04;103186.25;;;1.82;84.45
63090;BME280;49174;43.198;27.824;2023-01-25T08:07:30;103182.09;;;1.94;84.55
63090;BME280;49174;43.198;27.824;2023-01-25T08:09:56;103184.72;;;2.11;83.07
63090;BME280;49174;43.198;27.824;2023-01-25T08:12:21;103186.13;;;2.18;83.34
63090;BME280;49174;43.198;27.824;2023-01-25T08:14:47;103189.81;;;2.16;83.05
63090;BME280;49174;43.198;27.824;2023-01-25T08:17:14;103178.34;;;2.14;82.22
63090;BME280;49174;43.198;27.824;2023-01-25T08:19:40;103181.88;;;2.14;82.18
63090;BME280;49174;43.198;27.824;2023-01-25T08:22:06;103189.28;;;2.25;81.85
63090;BME280;49174;43.198;27.824;2023-01-25T08:24:32;103196.19;;;2.29;81.40
63090;BME280;49174;43.198;27.824;2023-01-25T08:26:58;103191.09;;;2.24;81.41
63090;BME280;49174;43.198;27.824;2023-01-25T08:29:23;103196.81;;;2.34;81.03
63090;BME280;49174;43.198;27.824;2023-01-25T08:31:52;103194.84;;;2.38;81.46
63090;BME280;49174;43.198;27.824;2023-01-25T08:34:17;103203.28;;;2.46;80.46
63090;BME280;49174;43.198;27.824;2023-01-25T08:36:43;103195.00;;;2.51;80.52
63090;BME280;49174;43.198;27.824;2023-01-25T08:39:10;103199.84;;;2.60;79.20
63090;BME280;49174;43.198;27.824;2023-01-25T08:41:36;103197.38;;;2.57;79.31
63090;BME280;49174;43.198;27.824;2023-01-25T08:44:02;103204.47;;;2.56;80.08
63090;BME280;49174;43.198;27.824;2023-01-25T08:46:29;103203.19;;;2.63;79.49
63090;BME280;49174;43.198;27.824;2023-01-25T08:48:56;103207.16;;;2.72;79.12
63090;BME280;49174;43.198;27.824;2023-01-25T08:51:23;103199.78;;;2.77;78.69
63090;BME280;49174;43.198;27.824;2023-01-25T08:53:49;103196.75;;;2.83;78.75
63090;BME280;49174;43.198;27.824;2023-01-25T08:56:16;103192.44;;;2.81;78.22
63090;BME280;49174;43.198;27.824;2023-01-25T08:58:43;103192.63;;;2.78;78.59
63090;BME280;49174;43.198;27.824;2023-01-25T09:01:11;103203.28;;;2.78;78.59
63090;BME280;49174;43.198;27.824;2023-01-25T09:03:40;103195.63;;;2.72;78.17
63090;BME280;49174;43.198;27.824;2023-01-25T09:06:06;103192.19;;;2.69;79.46
63090;BME280;49174;43.198;27.824;2023-01-25T09:08:34;103191.69;;;2.79;79.45
63090;BME280;49174;43.198;27.824;2023-01-25T09:11:05;103184.03;;;2.88;78.90
63090;BME280;49174;43.198;27.824;2023-01-25T09:13:31;103178.38;;;2.79;78.23
63090;BME280;49174;43.198;27.824;2023-01-25T09:16:04;103175.00;;;2.75;79.18
63090;BME280;49174;43.198;27.824;2023-01-25T09:18:31;103170.19;;;2.82;79.50
63090;BME280;49174;43.198;27.824;2023-01-25T09:20:57;103165.19;;;2.76;79.05
63090;BME280;49174;43.198;27.824;2023-01-25T09:23:23;103166.66;;;2.81;79.47
63090;BME280;49174;43.198;27.824;2023-01-25T09:25:58;103169.84;;;2.88;79.27
63090;BME280;49174;43.198;27.824;2023-01-25T09:28:25;103165.97;;;2.94;78.98
63090;BME280;49174;43.198;27.824;2023-01-25T09:30:55;103159.41;;;2.99;79.29
63090;BME280;49174;43.198;27.824;2023-01-25T09:33:24;103153.66;;;3.07;78.60
63090;BME280;49174;43.198;27.824;2023-01-25T09:35:50;103153.03;;;3.18;78.32
63090;BME280;49174;43.198;27.824;2023-01-25T09:38:15;103146.63;;;3.20;77.88
63090;BME280;49174;43.198;27.824;2023-01-25T09:40:46;103149.72;;;3.28;77.79
63090;BME280;49174;43.198;27.824;2023-01-25T09:45:47;103137.41;;;3.26;76.55
63090;BME280;49174;43.198;27.824;2023-01-25T09:48:37;103134.19;;;3.21;77.71
63090;BME280;49174;43.198;27.824;2023-01-25T09:51:22;103132.53;;;3.18;77.63
63090;BME280;49174;43.198;27.824;2023-01-25T09:53:52;103128.06;;;3.19;77.90
63090;BME280;49174;43.198;27.824;2023-01-25T09:56:26;103132.25;;;3.23;78.22
63090;BME280;49174;43.198;27.824;2023-01-25T09:58:57;103124.66;;;3.31;78.05
63090;BME280;49174;43.198;27.824;2023-01-25T10:01:32;103121.09;;;3.46;78.03
63090;BME280;49174;43.198;27.824;2023-01-25T10:04:03;103105.25;;;3.43;77.01
63090;BME280;49174;43.198;27.824;2023-01-25T10:06:37;103117.38;;;3.49;77.16
63090;BME280;49174;43.198;27.824;2023-01-25T10:11:50;103122.59;;;3.50;75.90
63090;BME280;49174;43.198;27.824;2023-01-25T10:14:18;103114.72;;;3.49;76.74
63090;BME280;49174;43.198;27.824;2023-01-25T10:21:56;103105.50;;;3.83;75.00
63090;BME280;49174;43.198;27.824;2023-01-25T10:24:30;103106.84;;;3.90;75.45
63090;BME280;49174;43.198;27.824;2023-01-25T10:29:38;103092.81;;;4.15;74.56
63090;BME280;49174;43.198;27.824;2023-01-25T10:34:48;103082.97;;;4.16;73.18
63090;BME280;49174;43.198;27.824;2023-01-25T10:37:24;103088.41;;;4.00;74.25
63090;BME280;49174;43.198;27.824;2023-01-25T10:39:57;103084.78;;;4.01;74.17
63090;BME280;49174;43.198;27.824;2023-01-25T10:42:26;103077.72;;;4.14;73.48
63090;BME280;49174;43.198;27.824;2023-01-25T10:44:54;103071.69;;;4.25;73.98
63090;BME280;49174;43.198;27.824;2023-01-25T10:47:28;103070.72;;;4.40;73.54
63090;BME280;49174;43.198;27.824;2023-01-25T10:49:57;103064.00;;;4.47;72.27
63090;BME280;49174;43.198;27.824;2023-01-25T10:57:35;103047.91;;;4.62;71.23
63090;BME280;49174;43.198;27.824;2023-01-25T11:00:05;103042.34;;;4.65;72.58
63090;BME280;49174;43.198;27.824;2023-01-25T11:07:43;103024.22;;;4.96;72.49
63090;BME280;49174;43.198;27.824;2023-01-25T11:10:42;103014.19;;;5.12;69.53
63090;BME280;49174;43.198;27.824;2023-01-25T11:15:38;103017.72;;;5.00;69.71
63090;BME280;49174;43.198;27.824;2023-01-25T11:18:06;103017.41;;;4.91;70.05
63090;BME280;49174;43.198;27.824;2023-01-25T11:20:36;103015.69;;;4.90;69.64
63090;BME280;49174;43.198;27.824;2023-01-25T11:23:02;103019.50;;;4.86;70.74
63090;BME280;49174;43.198;27.824;2023-01-25T12:39:07;102959.53;;;3.96;77.63
63090;BME280;49174;43.198;27.824;2023-01-25T12:44:24;102960.44;;;3.83;77.58
63090;BME280;49174;43.198;27.824;2023-01-25T12:47:10;102962.25;;;3.82;79.84
63090;BME280;49174;43.198;27.824;2023-01-25T12:49:51;102958.03;;;3.78;77.76
63090;BME280;49174;43.198;27.824;2023-01-25T12:52:32;102952.31;;;3.84;79.17
63090;BME280;49174;43.198;27.824;2023-01-25T12:55:12;102956.16;;;3.66;79.74
63090;BME280;49174;43.198;27.824;2023-01-25T12:58:06;102958.28;;;3.46;81.29
63090;BME280;49174;43.198;27.824;2023-01-25T13:08:22;102947.03;;;3.12;86.29
63090;BME280;49174;43.198;27.824;2023-01-25T13:10:59;102951.50;;;3.12;84.77
63090;BME280;49174;43.198;27.824;2023-01-25T13:13:28;102949.91;;;3.09;86.29
63090;BME280;49174;43.198;27.824;2023-01-25T13:15:54;102947.59;;;3.03;85.53
63090;BME280;49174;43.198;27.824;2023-01-25T13:20:51;102942.94;;;2.93;86.51
63090;BME280;49174;43.198;27.824;2023-01-25T13:28:57;102950.25;;;3.03;86.73
63090;BME280;49174;43.198;27.824;2023-01-25T13:36:52;102954.44;;;2.79;84.09
63090;BME280;49174;43.198;27.824;2023-01-25T13:42:17;102942.94;;;2.62;85.14
63090;BME280;49174;43.198;27.824;2023-01-25T13:44:46;102950.47;;;2.70;84.92
63090;BME280;49174;43.198;27.824;2023-01-25T13:47:17;102945.84;;;2.74;84.90
63090;BME280;49174;43.198;27.824;2023-01-25T13:57:50;102942.69;;;2.81;85.00
63090;BME280;49174;43.198;27.824;2023-01-25T14:00:16;102951.91;;;2.76;85.37
63090;BME280;49174;43.198;27.824;2023-01-25T14:02:44;102956.00;;;2.81;86.19
63090;BME280;49174;43.198;27.824;2023-01-25T14:05:22;102948.97;;;2.80;86.06
63090;BME280;49174;43.198;27.824;2023-01-25T14:07:53;102950.78;;;2.80;85.78
63090;BME280;49174;43.198;27.824;2023-01-25T14:10:23;102946.56;;;2.76;85.67
63090;BME280;49174;43.198;27.824;2023-01-25T14:12:52;102942.97;;;2.77;85.61
63090;BME280;49174;43.198;27.824;2023-01-25T14:18:10;102943.69;;;2.64;86.76
63090;BME280;49174;43.198;27.824;2023-01-25T14:20:37;102953.44;;;2.65;88.40
63090;BME280;49174;43.198;27.824;2023-01-25T14:23:02;102949.59;;;2.55;88.42
63090;BME280;49174;43.198;27.824;2023-01-25T14:25:31;102948.81;;;2.53;88.96
63090;BME280;49174;43.198;27.824;2023-01-25T14:28:01;102944.88;;;2.44;88.84
63090;BME280;49174;43.198;27.824;2023-01-25T14:30:34;102939.28;;;2.49;89.51
63090;BME280;49174;43.198;27.824;2023-01-25T14:33:03;102946.78;;;2.42;90.02
63090;BME280;49174;43.198;27.824;2023-01-25T14:35:41;102953.28;;;2.53;90.07
63090;BME280;49174;43.198;27.824;2023-01-25T14:38:32;102945.03;;;2.57;90.14
63090;BME280;49174;43.198;27.824;2023-01-25T14:43:46;102939.50;;;2.60;90.28
63090;BME280;49174;43.198;27.824;2023-01-25T14:48:50;102945.31;;;2.67;89.46
63090;BME280;49174;43.198;27.824;2023-01-25T14:51:25;102943.53;;;2.67;89.98
63090;BME280;49174;43.198;27.824;2023-01-25T14:54:18;102929.66;;;2.77;89.26
63090;BME280;49174;43.198;27.824;2023-01-25T14:56:46;102935.84;;;2.77;87.22
63090;BME280;49174;43.198;27.824;2023-01-25T15:04:57;102947.91;;;2.68;87.33
63090;BME280;49174;43.198;27.824;2023-01-25T15:10:15;102941.31;;;2.60;87.44
63090;BME280;49174;43.198;27.824;2023-01-25T15:12:54;102941.94;;;2.49;87.38
63090;BME280;49174;43.198;27.824;2023-01-25T15:15:21;102948.47;;;2.59;87.45
